Aérodrome :
LOGIN :

S'inscrire | Disclaimer

   EN    FR    IT 

 










Légende :    VFR   VFR Marginal   IFR   IFR Intensif   IFR Très Intensif
Visi : 
Plafond : 
>= 8 km
>= 3000ft
5 à 8 km
1000 à 3000 ft
1500m à 5 km
500 à 1000 ft
800 à 1500m
200 à 500 ft
< 800m
< 200 ft
Symboles :   Orages  Brouillard  Fortes neiges  Fortes précipitations  Vent > 20 kt
SIGMETs :   Divers  Orages  Givrage  Turbulence  Onde Orograph.  Cendres Volcan.







- Altitude de l'aérodrome : 1197 ft
- Code IATA : SPM


ETAD - Spangdahlem Ab

DERNIER METAR :
  • 190258Z AUTO 24008KT 9999 CLR 10/09 A3005 RMK AO2 SLP164 T01030092 53002 TSNO $

METARs EXPIRÉS :
  • 190158Z AUTO 25007KT 9999 CLR 11/10 A3004 RMK AO2 SLP160 T01050097 TSNO $
  • 190058Z AUTO 24008KT 9999 CLR 11/10 A3004 RMK AO2 SLP160 T01050096 TSNO $

TAF TAF ETAD
Valide du 19 à 03h jusqu'au 20 à 09h UTC


190309Z 1903/2009 24009KT 9999 BKN020 QNH3004INS
TEMPO 1910/1915 26010G25KT
BECMG 1915/1916 26012KT 9999 SCT040 QNH3013INS
BECMG 2004/2005 25006KT 8000 BR SCT040 QNH3022INS
BECMG 2005/2006 25006KT 9999 NSW OVC020 QNH3024INS TX19/1913Z TN10/2003Z
Pas de NOTAMs connus pour ce terrain.



MET'MAP, la Météo Aéronautique d'un coup d'oeil ! - Copyright ORBIFLY Décembre 2007 - Disclaimer

ORBIFLY MET'MAP TEAM :

Programmation & Développement : Alexandra Zaïnal
Conception & Développement : Baudouin d'Aumeries
Co-Programmation & Développement : Marc-Olivier Méhu
Soutien technique & logistique : Manuel Goepfert

Contact : metmap@orbifly.com




SOURCES & CREDITS :

   NOAA